sensor_id;sensor_type;location;lat;lon;timestamp;P1;durP1;ratioP1;P2;durP2;ratioP2
16159;SDS011;8185;57.818;15.224;2023-12-14T00:00:57;3.33;;;3.03;;
16159;SDS011;8185;57.818;15.224;2023-12-14T00:03:25;3.63;;;3.07;;
16159;SDS011;8185;57.818;15.224;2023-12-14T00:05:52;4.20;;;3.10;;
16159;SDS011;8185;57.818;15.224;2023-12-14T00:08:20;3.07;;;2.77;;
16159;SDS011;8185;57.818;15.224;2023-12-14T00:10:50;3.97;;;3.20;;
16159;SDS011;8185;57.818;15.224;2023-12-14T00:13:17;3.47;;;2.90;;
16159;SDS011;8185;57.818;15.224;2023-12-14T00:15:45;3.50;;;3.20;;
16159;SDS011;8185;57.818;15.224;2023-12-14T00:18:15;3.23;;;2.90;;
16159;SDS011;8185;57.818;15.224;2023-12-14T00:20:43;3.73;;;3.20;;
16159;SDS011;8185;57.818;15.224;2023-12-14T00:23:10;3.50;;;2.93;;
16159;SDS011;8185;57.818;15.224;2023-12-14T00:25:39;3.50;;;3.20;;
16159;SDS011;8185;57.818;15.224;2023-12-14T00:28:08;3.27;;;2.70;;
16159;SDS011;8185;57.818;15.224;2023-12-14T00:30:36;2.80;;;2.60;;
16159;SDS011;8185;57.818;15.224;2023-12-14T00:33:03;3.07;;;2.77;;
16159;SDS011;8185;57.818;15.224;2023-12-14T00:35:32;3.13;;;2.83;;
16159;SDS011;8185;57.818;15.224;2023-12-14T00:38:02;3.30;;;3.00;;
16159;SDS011;8185;57.818;15.224;2023-12-14T00:40:29;3.43;;;3.07;;
16159;SDS011;8185;57.818;15.224;2023-12-14T00:42:59;2.93;;;2.70;;
16159;SDS011;8185;57.818;15.224;2023-12-14T00:45:28;3.33;;;3.00;;
16159;SDS011;8185;57.818;15.224;2023-12-14T00:47:56;4.03;;;3.10;;
16159;SDS011;8185;57.818;15.224;2023-12-14T00:50:23;3.37;;;3.07;;
16159;SDS011;8185;57.818;15.224;2023-12-14T00:52:51;3.20;;;2.83;;
16159;SDS011;8185;57.818;15.224;2023-12-14T00:55:18;3.83;;;3.20;;
16159;SDS011;8185;57.818;15.224;2023-12-14T00:57:46;3.60;;;3.30;;
16159;SDS011;8185;57.818;15.224;2023-12-14T01:00:14;5.20;;;3.27;;
16159;SDS011;8185;57.818;15.224;2023-12-14T01:02:43;3.60;;;3.30;;
16159;SDS011;8185;57.818;15.224;2023-12-14T01:05:11;3.20;;;2.90;;
16159;SDS011;8185;57.818;15.224;2023-12-14T01:07:38;3.73;;;3.27;;
16159;SDS011;8185;57.818;15.224;2023-12-14T01:10:06;3.50;;;2.87;;
16159;SDS011;8185;57.818;15.224;2023-12-14T01:12:34;3.30;;;3.00;;
16159;SDS011;8185;57.818;15.224;2023-12-14T01:15:02;3.47;;;3.17;;
16159;SDS011;8185;57.818;15.224;2023-12-14T01:17:30;3.50;;;3.00;;
16159;SDS011;8185;57.818;15.224;2023-12-14T01:20:04;3.77;;;3.10;;
16159;SDS011;8185;57.818;15.224;2023-12-14T01:22:33;4.47;;;3.33;;
16159;SDS011;8185;57.818;15.224;2023-12-14T01:25:00;3.83;;;3.43;;
16159;SDS011;8185;57.818;15.224;2023-12-14T01:27:28;3.57;;;3.27;;
16159;SDS011;8185;57.818;15.224;2023-12-14T01:29:57;3.73;;;3.43;;
16159;SDS011;8185;57.818;15.224;2023-12-14T01:32:25;3.20;;;2.90;;
16159;SDS011;8185;57.818;15.224;2023-12-14T01:34:53;3.53;;;3.23;;
16159;SDS011;8185;57.818;15.224;2023-12-14T01:37:22;4.37;;;3.63;;
16159;SDS011;8185;57.818;15.224;2023-12-14T01:39:49;3.70;;;3.40;;
16159;SDS011;8185;57.818;15.224;2023-12-14T01:42:17;3.50;;;3.20;;
16159;SDS011;8185;57.818;15.224;2023-12-14T01:44:44;3.90;;;3.60;;
16159;SDS011;8185;57.818;15.224;2023-12-14T01:47:11;3.73;;;3.43;;
16159;SDS011;8185;57.818;15.224;2023-12-14T01:49:39;4.30;;;3.80;;
16159;SDS011;8185;57.818;15.224;2023-12-14T01:52:07;3.97;;;3.53;;
16159;SDS011;8185;57.818;15.224;2023-12-14T01:54:38;3.53;;;3.23;;
16159;SDS011;8185;57.818;15.224;2023-12-14T01:57:08;4.17;;;3.60;;
16159;SDS011;8185;57.818;15.224;2023-12-14T01:59:36;3.73;;;3.43;;
16159;SDS011;8185;57.818;15.224;2023-12-14T02:02:04;4.90;;;4.10;;
16159;SDS011;8185;57.818;15.224;2023-12-14T02:04:32;3.90;;;3.60;;
16159;SDS011;8185;57.818;15.224;2023-12-14T02:06:59;4.70;;;3.93;;
16159;SDS011;8185;57.818;15.224;2023-12-14T02:09:27;4.10;;;3.70;;
16159;SDS011;8185;57.818;15.224;2023-12-14T02:11:56;4.07;;;3.77;;
16159;SDS011;8185;57.818;15.224;2023-12-14T02:14:24;4.13;;;3.83;;
16159;SDS011;8185;57.818;15.224;2023-12-14T02:16:52;4.50;;;3.87;;
16159;SDS011;8185;57.818;15.224;2023-12-14T02:19:19;4.00;;;3.40;;
16159;SDS011;8185;57.818;15.224;2023-12-14T02:21:47;4.83;;;4.00;;
16159;SDS011;8185;57.818;15.224;2023-12-14T02:24:16;4.40;;;4.00;;
16159;SDS011;8185;57.818;15.224;2023-12-14T02:26:43;3.90;;;3.60;;
16159;SDS011;8185;57.818;15.224;2023-12-14T02:29:11;4.57;;;3.83;;
16159;SDS011;8185;57.818;15.224;2023-12-14T02:31:38;4.33;;;3.97;;
16159;SDS011;8185;57.818;15.224;2023-12-14T02:34:06;4.00;;;3.60;;
16159;SDS011;8185;57.818;15.224;2023-12-14T02:36:33;4.20;;;3.80;;
16159;SDS011;8185;57.818;15.224;2023-12-14T02:39:01;4.10;;;3.70;;
16159;SDS011;8185;57.818;15.224;2023-12-14T02:41:30;4.07;;;3.63;;
16159;SDS011;8185;57.818;15.224;2023-12-14T02:43:58;4.73;;;4.30;;
16159;SDS011;8185;57.818;15.224;2023-12-14T02:46:26;4.47;;;4.07;;
16159;SDS011;8185;57.818;15.224;2023-12-14T02:48:55;4.50;;;4.10;;
16159;SDS011;8185;57.818;15.224;2023-12-14T02:51:23;4.57;;;4.10;;
16159;SDS011;8185;57.818;15.224;2023-12-14T02:53:50;4.53;;;4.13;;
16159;SDS011;8185;57.818;15.224;2023-12-14T02:56:18;4.63;;;4.23;;
16159;SDS011;8185;57.818;15.224;2023-12-14T02:58:47;4.60;;;4.20;;
16159;SDS011;8185;57.818;15.224;2023-12-14T03:01:18;6.03;;;4.63;;
16159;SDS011;8185;57.818;15.224;2023-12-14T03:03:46;4.63;;;4.13;;
16159;SDS011;8185;57.818;15.224;2023-12-14T03:06:14;4.77;;;4.10;;
16159;SDS011;8185;57.818;15.224;2023-12-14T03:08:41;4.70;;;4.30;;
16159;SDS011;8185;57.818;15.224;2023-12-14T03:11:09;4.33;;;3.90;;
16159;SDS011;8185;57.818;15.224;2023-12-14T03:13:37;3.90;;;3.60;;
16159;SDS011;8185;57.818;15.224;2023-12-14T03:16:07;4.00;;;3.70;;
16159;SDS011;8185;57.818;15.224;2023-12-14T03:18:35;4.30;;;3.53;;
16159;SDS011;8185;57.818;15.224;2023-12-14T03:21:02;4.17;;;3.77;;
16159;SDS011;8185;57.818;15.224;2023-12-14T03:23:30;4.30;;;3.90;;
16159;SDS011;8185;57.818;15.224;2023-12-14T03:25:57;3.93;;;3.63;;
16159;SDS011;8185;57.818;15.224;2023-12-14T03:28:25;4.30;;;3.90;;
16159;SDS011;8185;57.818;15.224;2023-12-14T03:30:53;4.43;;;4.03;;
16159;SDS011;8185;57.818;15.224;2023-12-14T03:33:22;4.00;;;3.70;;
16159;SDS011;8185;57.818;15.224;2023-12-14T03:35:49;4.27;;;3.90;;
16159;SDS011;8185;57.818;15.224;2023-12-14T03:38:17;4.50;;;3.53;;
16159;SDS011;8185;57.818;15.224;2023-12-14T03:40:45;3.87;;;3.57;;
16159;SDS011;8185;57.818;15.224;2023-12-14T03:43:12;3.60;;;3.30;;
16159;SDS011;8185;57.818;15.224;2023-12-14T03:45:40;4.27;;;3.87;;
16159;SDS011;8185;57.818;15.224;2023-12-14T03:48:08;5.07;;;3.50;;
16159;SDS011;8185;57.818;15.224;2023-12-14T03:50:37;4.37;;;4.07;;
16159;SDS011;8185;57.818;15.224;2023-12-14T03:53:05;3.50;;;3.20;;
16159;SDS011;8185;57.818;15.224;2023-12-14T03:55:32;3.47;;;3.17;;
16159;SDS011;8185;57.818;15.224;2023-12-14T03:57:59;3.90;;;3.57;;
16159;SDS011;8185;57.818;15.224;2023-12-14T04:00:27;4.00;;;3.70;;
16159;SDS011;8185;57.818;15.224;2023-12-14T04:02:55;3.90;;;3.27;;
16159;SDS011;8185;57.818;15.224;2023-12-14T04:05:22;3.50;;;3.20;;
16159;SDS011;8185;57.818;15.224;2023-12-14T04:07:51;3.60;;;3.30;;
16159;SDS011;8185;57.818;15.224;2023-12-14T04:10:19;3.50;;;3.20;;
16159;SDS011;8185;57.818;15.224;2023-12-14T04:12:46;3.20;;;2.90;;
16159;SDS011;8185;57.818;15.224;2023-12-14T04:15:13;3.50;;;3.20;;
16159;SDS011;8185;57.818;15.224;2023-12-14T04:17:41;3.57;;;3.27;;
16159;SDS011;8185;57.818;15.224;2023-12-14T04:20:09;3.37;;;3.10;;
16159;SDS011;8185;57.818;15.224;2023-12-14T04:22:37;3.90;;;3.50;;
16159;SDS011;8185;57.818;15.224;2023-12-14T04:25:07;3.33;;;2.93;;
16159;SDS011;8185;57.818;15.224;2023-12-14T04:27:35;3.33;;;3.03;;
16159;SDS011;8185;57.818;15.224;2023-12-14T04:30:04;3.50;;;3.20;;
16159;SDS011;8185;57.818;15.224;2023-12-14T04:32:36;4.63;;;3.10;;
16159;SDS011;8185;57.818;15.224;2023-12-14T04:35:06;3.30;;;3.00;;
16159;SDS011;8185;57.818;15.224;2023-12-14T04:37:36;4.10;;;3.03;;
16159;SDS011;8185;57.818;15.224;2023-12-14T04:40:04;3.93;;;3.53;;
16159;SDS011;8185;57.818;15.224;2023-12-14T04:42:35;3.40;;;3.10;;
16159;SDS011;8185;57.818;15.224;2023-12-14T04:45:02;4.13;;;3.83;;
16159;SDS011;8185;57.818;15.224;2023-12-14T04:47:31;3.60;;;3.30;;
16159;SDS011;8185;57.818;15.224;2023-12-14T04:49:59;3.40;;;3.10;;
16159;SDS011;8185;57.818;15.224;2023-12-14T04:52:26;3.47;;;3.17;;
16159;SDS011;8185;57.818;15.224;2023-12-14T04:54:54;3.90;;;3.33;;
16159;SDS011;8185;57.818;15.224;2023-12-14T04:57:23;3.73;;;3.43;;
16159;SDS011;8185;57.818;15.224;2023-12-14T04:59:53;4.43;;;4.03;;
16159;SDS011;8185;57.818;15.224;2023-12-14T05:02:20;3.27;;;2.97;;
16159;SDS011;8185;57.818;15.224;2023-12-14T05:04:48;3.70;;;3.40;;
16159;SDS011;8185;57.818;15.224;2023-12-14T05:07:16;3.00;;;2.80;;
16159;SDS011;8185;57.818;15.224;2023-12-14T05:09:44;3.50;;;3.20;;
16159;SDS011;8185;57.818;15.224;2023-12-14T05:12:12;3.80;;;3.37;;
16159;SDS011;8185;57.818;15.224;2023-12-14T05:14:41;4.67;;;3.27;;
16159;SDS011;8185;57.818;15.224;2023-12-14T05:17:08;3.10;;;2.90;;
16159;SDS011;8185;57.818;15.224;2023-12-14T05:19:36;2.97;;;2.77;;
16159;SDS011;8185;57.818;15.224;2023-12-14T05:22:04;2.80;;;2.60;;
16159;SDS011;8185;57.818;15.224;2023-12-14T05:24:32;3.27;;;2.97;;
16159;SDS011;8185;57.818;15.224;2023-12-14T05:26:59;3.43;;;3.13;;
16159;SDS011;8185;57.818;15.224;2023-12-14T05:29:27;2.70;;;2.50;;
16159;SDS011;8185;57.818;15.224;2023-12-14T05:31:56;3.30;;;2.70;;
16159;SDS011;8185;57.818;15.224;2023-12-14T05:34:23;2.70;;;2.50;;
16159;SDS011;8185;57.818;15.224;2023-12-14T05:36:52;2.93;;;2.63;;
16159;SDS011;8185;57.818;15.224;2023-12-14T05:39:20;3.23;;;2.83;;
16159;SDS011;8185;57.818;15.224;2023-12-14T05:41:48;2.70;;;2.50;;
16159;SDS011;8185;57.818;15.224;2023-12-14T05:44:15;2.73;;;2.50;;
16159;SDS011;8185;57.818;15.224;2023-12-14T05:46:44;3.20;;;2.90;;
16159;SDS011;8185;57.818;15.224;2023-12-14T05:49:13;3.70;;;3.20;;
16159;SDS011;8185;57.818;15.224;2023-12-14T05:51:41;3.00;;;2.80;;
16159;SDS011;8185;57.818;15.224;2023-12-14T05:54:08;2.80;;;2.60;;
16159;SDS011;8185;57.818;15.224;2023-12-14T05:56:35;3.80;;;3.20;;
16159;SDS011;8185;57.818;15.224;2023-12-14T05:59:03;3.17;;;2.90;;
16159;SDS011;8185;57.818;15.224;2023-12-14T06:01:31;2.97;;;2.77;;
16159;SDS011;8185;57.818;15.224;2023-12-14T06:03:58;3.17;;;2.97;;
16159;SDS011;8185;57.818;15.224;2023-12-14T06:06:27;3.17;;;2.87;;
16159;SDS011;8185;57.818;15.224;2023-12-14T06:08:54;3.07;;;2.77;;
16159;SDS011;8185;57.818;15.224;2023-12-14T06:11:22;3.37;;;3.07;;
16159;SDS011;8185;57.818;15.224;2023-12-14T06:13:49;3.07;;;2.87;;
16159;SDS011;8185;57.818;15.224;2023-12-14T06:16:17;4.17;;;3.20;;
16159;SDS011;8185;57.818;15.224;2023-12-14T06:18:44;3.60;;;3.30;;
16159;SDS011;8185;57.818;15.224;2023-12-14T06:21:12;3.63;;;3.33;;
16159;SDS011;8185;57.818;15.224;2023-12-14T06:23:41;3.77;;;3.47;;
16159;SDS011;8185;57.818;15.224;2023-12-14T06:26:08;3.70;;;3.40;;
16159;SDS011;8185;57.818;15.224;2023-12-14T06:28:36;3.80;;;3.50;;
16159;SDS011;8185;57.818;15.224;2023-12-14T06:31:04;4.07;;;3.70;;
16159;SDS011;8185;57.818;15.224;2023-12-14T06:33:32;3.50;;;3.23;;
16159;SDS011;8185;57.818;15.224;2023-12-14T06:36:02;3.60;;;3.30;;
16159;SDS011;8185;57.818;15.224;2023-12-14T06:38:31;4.03;;;3.70;;
16159;SDS011;8185;57.818;15.224;2023-12-14T06:41:00;4.00;;;3.70;;
16159;SDS011;8185;57.818;15.224;2023-12-14T06:43:28;3.80;;;3.50;;
16159;SDS011;8185;57.818;15.224;2023-12-14T06:45:55;4.57;;;4.10;;
16159;SDS011;8185;57.818;15.224;2023-12-14T06:48:23;3.90;;;3.60;;
16159;SDS011;8185;57.818;15.224;2023-12-14T06:50:49;3.90;;;3.57;;
16159;SDS011;8185;57.818;15.224;2023-12-14T06:53:20;4.50;;;4.10;;
16159;SDS011;8185;57.818;15.224;2023-12-14T06:55:47;4.23;;;3.83;;
16159;SDS011;8185;57.818;15.224;2023-12-14T06:58:16;4.60;;;4.20;;
16159;SDS011;8185;57.818;15.224;2023-12-14T07:00:44;4.50;;;4.10;;
16159;SDS011;8185;57.818;15.224;2023-12-14T07:03:12;4.60;;;4.20;;
16159;SDS011;8185;57.818;15.224;2023-12-14T07:05:40;4.40;;;4.00;;
16159;SDS011;8185;57.818;15.224;2023-12-14T07:08:08;4.33;;;4.00;;
16159;SDS011;8185;57.818;15.224;2023-12-14T07:10:35;4.80;;;4.40;;
16159;SDS011;8185;57.818;15.224;2023-12-14T07:13:03;4.80;;;4.40;;
16159;SDS011;8185;57.818;15.224;2023-12-14T07:15:32;4.80;;;4.40;;
16159;SDS011;8185;57.818;15.224;2023-12-14T07:17:59;4.47;;;4.07;;
16159;SDS011;8185;57.818;15.224;2023-12-14T07:20:27;4.53;;;4.13;;
16159;SDS011;8185;57.818;15.224;2023-12-14T07:22:55;4.50;;;4.10;;
16159;SDS011;8185;57.818;15.224;2023-12-14T07:25:22;5.10;;;4.20;;
16159;SDS011;8185;57.818;15.224;2023-12-14T07:27:50;7.37;;;5.60;;
16159;SDS011;8185;57.818;15.224;2023-12-14T07:30:18;5.17;;;4.67;;
16159;SDS011;8185;57.818;15.224;2023-12-14T07:32:47;5.27;;;4.80;;
16159;SDS011;8185;57.818;15.224;2023-12-14T07:35:16;6.23;;;5.37;;
16159;SDS011;8185;57.818;15.224;2023-12-14T07:37:44;5.73;;;5.03;;
16159;SDS011;8185;57.818;15.224;2023-12-14T07:40:11;5.83;;;5.33;;
16159;SDS011;8185;57.818;15.224;2023-12-14T07:42:39;5.40;;;4.90;;
16159;SDS011;8185;57.818;15.224;2023-12-14T07:45:07;6.57;;;5.97;;
16159;SDS011;8185;57.818;15.224;2023-12-14T07:47:36;5.63;;;5.03;;
16159;SDS011;8185;57.818;15.224;2023-12-14T07:50:05;5.23;;;4.83;;
16159;SDS011;8185;57.818;15.224;2023-12-14T07:52:33;5.87;;;5.37;;
16159;SDS011;8185;57.818;15.224;2023-12-14T07:55:01;7.03;;;5.67;;
16159;SDS011;8185;57.818;15.224;2023-12-14T07:57:29;6.10;;;5.60;;
16159;SDS011;8185;57.818;15.224;2023-12-14T07:59:56;5.93;;;5.43;;
16159;SDS011;8185;57.818;15.224;2023-12-14T08:02:24;5.93;;;5.43;;
16159;SDS011;8185;57.818;15.224;2023-12-14T08:04:52;5.23;;;4.73;;
16159;SDS011;8185;57.818;15.224;2023-12-14T08:07:20;5.70;;;5.20;;
16159;SDS011;8185;57.818;15.224;2023-12-14T08:09:48;4.37;;;3.97;;
16159;SDS011;8185;57.818;15.224;2023-12-14T08:12:16;4.67;;;4.27;;
16159;SDS011;8185;57.818;15.224;2023-12-14T08:14:43;5.30;;;4.80;;
16159;SDS011;8185;57.818;15.224;2023-12-14T08:17:11;5.43;;;4.93;;
16159;SDS011;8185;57.818;15.224;2023-12-14T08:19:38;5.03;;;4.60;;
16159;SDS011;8185;57.818;15.224;2023-12-14T08:22:06;5.43;;;5.03;;
16159;SDS011;8185;57.818;15.224;2023-12-14T08:24:37;5.90;;;5.30;;
16159;SDS011;8185;57.818;15.224;2023-12-14T08:27:05;6.37;;;5.77;;
16159;SDS011;8185;57.818;15.224;2023-12-14T08:29:33;7.30;;;5.73;;
16159;SDS011;8185;57.818;15.224;2023-12-14T08:32:00;5.90;;;5.30;;
16159;SDS011;8185;57.818;15.224;2023-12-14T08:34:28;6.10;;;5.50;;
16159;SDS011;8185;57.818;15.224;2023-12-14T08:36:56;5.40;;;4.90;;
16159;SDS011;8185;57.818;15.224;2023-12-14T08:39:23;4.30;;;3.90;;
16159;SDS011;8185;57.818;15.224;2023-12-14T08:41:53;4.57;;;4.07;;
16159;SDS011;8185;57.818;15.224;2023-12-14T08:44:21;5.13;;;4.63;;
16159;SDS011;8185;57.818;15.224;2023-12-14T08:46:49;5.00;;;4.47;;
16159;SDS011;8185;57.818;15.224;2023-12-14T08:49:16;4.93;;;4.20;;
16159;SDS011;8185;57.818;15.224;2023-12-14T08:51:44;5.33;;;4.83;;
16159;SDS011;8185;57.818;15.224;2023-12-14T08:54:11;5.53;;;5.00;;
16159;SDS011;8185;57.818;15.224;2023-12-14T08:56:39;4.80;;;4.40;;
16159;SDS011;8185;57.818;15.224;2023-12-14T08:59:08;5.00;;;4.60;;
16159;SDS011;8185;57.818;15.224;2023-12-14T09:01:37;5.00;;;4.50;;
16159;SDS011;8185;57.818;15.224;2023-12-14T09:04:05;4.87;;;4.47;;
16159;SDS011;8185;57.818;15.224;2023-12-14T09:06:33;4.60;;;4.20;;
16159;SDS011;8185;57.818;15.224;2023-12-14T09:09:00;5.10;;;4.70;;
16159;SDS011;8185;57.818;15.224;2023-12-14T09:11:28;4.43;;;4.03;;
16159;SDS011;8185;57.818;15.224;2023-12-14T09:13:56;3.70;;;3.40;;
16159;SDS011;8185;57.818;15.224;2023-12-14T09:16:25;4.10;;;3.73;;
16159;SDS011;8185;57.818;15.224;2023-12-14T09:18:53;4.20;;;3.80;;
16159;SDS011;8185;57.818;15.224;2023-12-14T09:21:20;3.70;;;3.40;;
16159;SDS011;8185;57.818;15.224;2023-12-14T09:23:47;6.40;;;3.43;;
16159;SDS011;8185;57.818;15.224;2023-12-14T09:26:15;5.57;;;3.43;;
16159;SDS011;8185;57.818;15.224;2023-12-14T09:28:43;4.50;;;3.33;;
16159;SDS011;8185;57.818;15.224;2023-12-14T09:31:11;3.37;;;3.07;;
16159;SDS011;8185;57.818;15.224;2023-12-14T09:33:40;3.43;;;3.13;;
16159;SDS011;8185;57.818;15.224;2023-12-14T09:36:08;4.30;;;3.90;;
16159;SDS011;8185;57.818;15.224;2023-12-14T09:38:35;4.27;;;3.50;;
16159;SDS011;8185;57.818;15.224;2023-12-14T09:41:03;4.43;;;4.03;;
16159;SDS011;8185;57.818;15.224;2023-12-14T09:43:32;4.67;;;3.97;;
16159;SDS011;8185;57.818;15.224;2023-12-14T09:46:00;4.27;;;3.60;;
16159;SDS011;8185;57.818;15.224;2023-12-14T09:48:29;4.23;;;3.80;;
16159;SDS011;8185;57.818;15.224;2023-12-14T09:51:00;3.80;;;3.40;;
16159;SDS011;8185;57.818;15.224;2023-12-14T09:53:28;4.00;;;3.63;;
16159;SDS011;8185;57.818;15.224;2023-12-14T09:55:55;4.27;;;3.90;;
16159;SDS011;8185;57.818;15.224;2023-12-14T09:58:23;3.90;;;3.60;;
16159;SDS011;8185;57.818;15.224;2023-12-14T10:00:50;3.70;;;3.40;;
16159;SDS011;8185;57.818;15.224;2023-12-14T10:03:21;4.73;;;3.90;;
16159;SDS011;8185;57.818;15.224;2023-12-14T10:05:51;3.80;;;3.50;;
16159;SDS011;8185;57.818;15.224;2023-12-14T10:08:21;3.80;;;3.50;;
16159;SDS011;8185;57.818;15.224;2023-12-14T10:10:49;3.67;;;3.37;;
16159;SDS011;8185;57.818;15.224;2023-12-14T10:13:18;3.63;;;3.23;;
16159;SDS011;8185;57.818;15.224;2023-12-14T10:15:46;3.63;;;3.33;;
16159;SDS011;8185;57.818;15.224;2023-12-14T10:18:19;3.90;;;3.50;;
16159;SDS011;8185;57.818;15.224;2023-12-14T10:20:49;2.50;;;2.30;;
16159;SDS011;8185;57.818;15.224;2023-12-14T10:23:18;3.10;;;2.80;;
16159;SDS011;8185;57.818;15.224;2023-12-14T10:25:48;2.60;;;2.40;;
16159;SDS011;8185;57.818;15.224;2023-12-14T10:28:15;2.70;;;2.50;;
16159;SDS011;8185;57.818;15.224;2023-12-14T10:30:44;3.50;;;3.00;;
16159;SDS011;8185;57.818;15.224;2023-12-14T10:33:11;3.47;;;2.97;;
16159;SDS011;8185;57.818;15.224;2023-12-14T10:35:39;3.77;;;3.40;;
16159;SDS011;8185;57.818;15.224;2023-12-14T10:38:07;3.60;;;3.30;;
16159;SDS011;8185;57.818;15.224;2023-12-14T10:40:36;3.90;;;3.60;;
16159;SDS011;8185;57.818;15.224;2023-12-14T10:43:10;4.27;;;3.87;;
16159;SDS011;8185;57.818;15.224;2023-12-14T10:45:39;4.87;;;4.47;;
16159;SDS011;8185;57.818;15.224;2023-12-14T10:48:10;5.07;;;4.30;;
16159;SDS011;8185;57.818;15.224;2023-12-14T10:50:38;5.37;;;4.87;;
16159;SDS011;8185;57.818;15.224;2023-12-14T10:53:09;4.47;;;3.63;;
16159;SDS011;8185;57.818;15.224;2023-12-14T10:55:37;4.30;;;3.90;;
16159;SDS011;8185;57.818;15.224;2023-12-14T10:58:08;3.70;;;3.40;;
16159;SDS011;8185;57.818;15.224;2023-12-14T11:00:38;3.67;;;3.37;;
16159;SDS011;8185;57.818;15.224;2023-12-14T11:03:06;3.53;;;3.23;;
16159;SDS011;8185;57.818;15.224;2023-12-14T11:05:33;3.43;;;3.13;;
16159;SDS011;8185;57.818;15.224;2023-12-14T11:08:02;3.10;;;2.80;;
16159;SDS011;8185;57.818;15.224;2023-12-14T11:10:38;2.60;;;2.40;;
16159;SDS011;8185;57.818;15.224;2023-12-14T11:13:07;3.20;;;2.90;;
16159;SDS011;8185;57.818;15.224;2023-12-14T11:15:39;3.73;;;3.43;;
16159;SDS011;8185;57.818;15.224;2023-12-14T11:18:21;3.10;;;2.90;;
16159;SDS011;8185;57.818;15.224;2023-12-14T11:20:51;3.13;;;2.73;;
16159;SDS011;8185;57.818;15.224;2023-12-14T11:26:10;3.33;;;3.03;;
16159;SDS011;8185;57.818;15.224;2023-12-14T11:28:48;3.40;;;3.10;;
16159;SDS011;8185;57.818;15.224;2023-12-14T11:31:17;3.00;;;2.70;;
16159;SDS011;8185;57.818;15.224;2023-12-14T11:33:46;3.00;;;2.80;;
16159;SDS011;8185;57.818;15.224;2023-12-14T11:36:14;3.90;;;3.50;;
16159;SDS011;8185;57.818;15.224;2023-12-14T11:38:42;3.50;;;3.20;;
16159;SDS011;8185;57.818;15.224;2023-12-14T11:41:10;5.07;;;3.70;;
16159;SDS011;8185;57.818;15.224;2023-12-14T11:43:41;3.67;;;3.37;;
16159;SDS011;8185;57.818;15.224;2023-12-14T11:46:11;3.07;;;2.77;;
16159;SDS011;8185;57.818;15.224;2023-12-14T11:48:39;3.70;;;3.40;;
16159;SDS011;8185;57.818;15.224;2023-12-14T11:51:06;3.77;;;3.43;;
16159;SDS011;8185;57.818;15.224;2023-12-14T11:53:35;3.37;;;2.97;;
16159;SDS011;8185;57.818;15.224;2023-12-14T11:56:04;3.40;;;2.93;;
16159;SDS011;8185;57.818;15.224;2023-12-14T11:58:32;4.07;;;3.60;;
16159;SDS011;8185;57.818;15.224;2023-12-14T12:01:11;4.10;;;3.70;;
16159;SDS011;8185;57.818;15.224;2023-12-14T12:03:40;3.97;;;3.67;;
16159;SDS011;8185;57.818;15.224;2023-12-14T12:06:08;4.43;;;3.73;;
16159;SDS011;8185;57.818;15.224;2023-12-14T12:08:45;4.33;;;3.93;;
16159;SDS011;8185;57.818;15.224;2023-12-14T12:11:15;3.80;;;3.50;;
16159;SDS011;8185;57.818;15.224;2023-12-14T12:13:43;3.70;;;3.40;;
16159;SDS011;8185;57.818;15.224;2023-12-14T12:16:18;5.70;;;4.20;;
16159;SDS011;8185;57.818;15.224;2023-12-14T12:18:45;5.73;;;5.23;;
16159;SDS011;8185;57.818;15.224;2023-12-14T12:21:13;5.00;;;4.60;;
16159;SDS011;8185;57.818;15.224;2023-12-14T12:23:40;5.43;;;4.13;;
16159;SDS011;8185;57.818;15.224;2023-12-14T12:26:08;5.57;;;5.10;;
16159;SDS011;8185;57.818;15.224;2023-12-14T12:28:36;4.30;;;4.00;;
16159;SDS011;8185;57.818;15.224;2023-12-14T12:31:04;4.53;;;4.13;;
16159;SDS011;8185;57.818;15.224;2023-12-14T12:33:33;4.97;;;4.47;;
16159;SDS011;8185;57.818;15.224;2023-12-14T12:36:03;4.50;;;4.10;;
16159;SDS011;8185;57.818;15.224;2023-12-14T12:38:31;4.83;;;4.40;;
16159;SDS011;8185;57.818;15.224;2023-12-14T12:40:59;4.73;;;4.23;;
16159;SDS011;8185;57.818;15.224;2023-12-14T12:43:27;4.50;;;4.10;;
16159;SDS011;8185;57.818;15.224;2023-12-14T12:45:54;6.00;;;4.57;;
16159;SDS011;8185;57.818;15.224;2023-12-14T12:48:23;4.57;;;4.17;;
16159;SDS011;8185;57.818;15.224;2023-12-14T12:50:52;4.77;;;4.37;;
16159;SDS011;8185;57.818;15.224;2023-12-14T12:53:20;5.27;;;4.77;;
16159;SDS011;8185;57.818;15.224;2023-12-14T12:55:47;5.80;;;4.67;;
16159;SDS011;8185;57.818;15.224;2023-12-14T12:58:15;4.17;;;3.83;;
16159;SDS011;8185;57.818;15.224;2023-12-14T13:00:43;4.27;;;3.87;;
16159;SDS011;8185;57.818;15.224;2023-12-14T13:03:10;8.10;;;7.33;;
16159;SDS011;8185;57.818;15.224;2023-12-14T13:05:38;4.30;;;3.90;;
16159;SDS011;8185;57.818;15.224;2023-12-14T13:08:07;3.43;;;3.13;;
16159;SDS011;8185;57.818;15.224;2023-12-14T13:10:34;3.60;;;3.10;;
16159;SDS011;8185;57.818;15.224;2023-12-14T13:13:04;7.10;;;5.87;;
16159;SDS011;8185;57.818;15.224;2023-12-14T13:15:33;3.20;;;2.90;;
16159;SDS011;8185;57.818;15.224;2023-12-14T13:18:01;4.43;;;4.00;;
16159;SDS011;8185;57.818;15.224;2023-12-14T13:20:29;3.97;;;3.67;;
16159;SDS011;8185;57.818;15.224;2023-12-14T13:22:57;3.60;;;3.30;;
16159;SDS011;8185;57.818;15.224;2023-12-14T13:25:26;2.87;;;2.67;;
16159;SDS011;8185;57.818;15.224;2023-12-14T13:27:54;3.30;;;3.00;;
16159;SDS011;8185;57.818;15.224;2023-12-14T13:30:22;3.73;;;3.27;;
16159;SDS011;8185;57.818;15.224;2023-12-14T13:32:49;3.73;;;3.43;;
16159;SDS011;8185;57.818;15.224;2023-12-14T13:35:19;3.43;;;2.80;;
16159;SDS011;8185;57.818;15.224;2023-12-14T13:37:49;3.93;;;3.63;;
16159;SDS011;8185;57.818;15.224;2023-12-14T13:40:17;4.00;;;3.07;;
16159;SDS011;8185;57.818;15.224;2023-12-14T13:42:46;3.40;;;3.10;;
16159;SDS011;8185;57.818;15.224;2023-12-14T13:45:14;2.60;;;2.40;;
16159;SDS011;8185;57.818;15.224;2023-12-14T13:47:41;3.27;;;2.97;;
16159;SDS011;8185;57.818;15.224;2023-12-14T13:50:09;3.33;;;3.03;;
16159;SDS011;8185;57.818;15.224;2023-12-14T13:52:37;3.33;;;3.03;;
16159;SDS011;8185;57.818;15.224;2023-12-14T13:55:05;3.63;;;3.30;;
16159;SDS011;8185;57.818;15.224;2023-12-14T13:57:32;3.10;;;2.80;;
16159;SDS011;8185;57.818;15.224;2023-12-14T14:00:01;4.40;;;4.00;;
16159;SDS011;8185;57.818;15.224;2023-12-14T14:02:29;3.10;;;2.90;;
16159;SDS011;8185;57.818;15.224;2023-12-14T14:04:57;3.47;;;3.17;;
16159;SDS011;8185;57.818;15.224;2023-12-14T14:07:24;3.60;;;3.30;;
16159;SDS011;8185;57.818;15.224;2023-12-14T14:09:52;4.20;;;3.27;;
16159;SDS011;8185;57.818;15.224;2023-12-14T14:12:19;3.80;;;3.40;;
16159;SDS011;8185;57.818;15.224;2023-12-14T14:14:47;3.60;;;3.30;;
16159;SDS011;8185;57.818;15.224;2023-12-14T14:17:16;3.20;;;2.90;;
16159;SDS011;8185;57.818;15.224;2023-12-14T14:19:43;3.33;;;3.03;;
16159;SDS011;8185;57.818;15.224;2023-12-14T14:22:11;3.30;;;3.00;;
16159;SDS011;8185;57.818;15.224;2023-12-14T14:24:38;3.53;;;3.23;;
16159;SDS011;8185;57.818;15.224;2023-12-14T14:27:06;4.90;;;4.50;;
16159;SDS011;8185;57.818;15.224;2023-12-14T14:29:34;3.30;;;3.00;;
16159;SDS011;8185;57.818;15.224;2023-12-14T14:32:02;3.00;;;2.70;;
16159;SDS011;8185;57.818;15.224;2023-12-14T14:34:31;3.00;;;2.80;;
16159;SDS011;8185;57.818;15.224;2023-12-14T14:36:58;4.40;;;2.80;;
16159;SDS011;8185;57.818;15.224;2023-12-14T14:39:26;3.47;;;3.17;;
16159;SDS011;8185;57.818;15.224;2023-12-14T14:41:53;3.00;;;2.80;;
16159;SDS011;8185;57.818;15.224;2023-12-14T14:44:21;3.07;;;2.83;;
16159;SDS011;8185;57.818;15.224;2023-12-14T14:46:48;3.50;;;3.20;;
16159;SDS011;8185;57.818;15.224;2023-12-14T14:49:16;3.33;;;3.03;;
16159;SDS011;8185;57.818;15.224;2023-12-14T14:51:45;3.53;;;2.60;;
16159;SDS011;8185;57.818;15.224;2023-12-14T14:54:12;3.47;;;2.90;;
16159;SDS011;8185;57.818;15.224;2023-12-14T14:56:40;3.67;;;3.17;;